Data for 09/25/2009

Time Sea-Level Adjusted Pressure Absolute Pressure Temperature Relative Humidity Dew Point   
(mb) (inHg) (mb) (inHg) (C) (F) (%) (C) (F)
00:05 1021 30.15 850 25.1 16.3 61.4 30 -1.1 30.1
00:10 1021 30.15 850 25.1 16 60.7 34 0.3 32.5
00:15 1021 30.15 850 25.1 15.5 59.9 36 0.5 32.8
00:20 1021 30.15 850 25.1 15.1 59.2 33 -0.8 30.6
00:25 1021 30.15 850 25.1 14.7 58.5 33 -1.3 29.7
00:30 1021 30.15 850 25.1 14.5 58.1 35 -0.9 30.4
00:35 1021 30.15 850 25.1 14.3 57.7 34 -1.2 29.8
00:40 1021 30.15 850 25.1 14.2 57.5 34 -1.2 29.9
00:45 1021 30.15 850 25.1 14.1 57.5 37 -0.3 31.5
00:50 1021 30.15 850 25.1 14 57.2 33 -2.1 28.2
00:55 1021 30.15 850 25.1 15.2 59.3 31 -1.6 29
01:00 1021 30.15 850 25.1 15.3 59.5 32 -1.4 29.5
01:05 1021 30.15 850 25.1 15.2 59.3 32 -1.4 29.5
01:10 1021 30.15 850 25.1 15.1 59.1 32 -1.6 29.2
01:15 1021 30.15 850 25.1 15.3 59.6 30 -1.8 28.7
01:20 1021 30.15 850 25.1 15.6 60.1 30 -1.9 28.6
01:25 1021 30.15 850 25.1 15.8 60.4 30 -1.5 29.2
01:30 1021 30.15 850 25.1 15.2 59.3 32 -1.2 29.8
01:35 1021 30.15 850 25.1 14.9 58.8 32 -1.7 28.9
01:40 1021 30.15 850 25.1 15.1 59.1 32 -1.6 29.1
01:45 1021 30.15 850 25.1 14.7 58.4 33 -1.2 29.8
01:50 1021 30.15 850 25.1 14.4 57.9 33 -1.6 29.1
01:55 1021 30.15 850 25.1 14.6 58.2 33 -1.5 29.3
02:00 1021 30.15 850 25.1 14.4 57.9 33 -1.5 29.3
02:05 1021 30.15 850 25.1 14.3 57.7 33 -1.6 29.1
02:10 1021 30.15 850 25.1 14.2 57.6 34 -1.5 29.3
02:15 1021 30.15 850 25.1 14.2 57.5 33 -1.6 29.1
02:20 1021 30.15 850 25.1 14.2 57.6 33 -1.8 28.8
02:25 1021 30.15 850 25.1 14.3 57.8 33 -1.7 28.9
02:30 1021 30.15 850 25.1 14.3 57.8 33 -1.6 29
02:35 1021 30.15 850 25.1 14.6 58.2 32 -1.8 28.7
02:40 1021 30.15 850 25.1 14.7 58.5 32 -1.8 28.8
02:45 1021 30.15 850 25.1 14.9 58.9 31 -1.9 28.6
02:50 1021 30.15 850 25.1 15.2 59.4 30 -2.2 28.1
02:55 1021 30.15 850 25.1 15.7 60.3 29 -2.2 28.1
03:00 1021 30.15 850 25.1 16 60.7 30 -1.4 29.4
03:05 1021 30.15 850 25.1 15.5 59.8 31 -1.3 29.7
03:10 1021 30.15 850 25.1 14.9 58.8 33 -1.1 30.1
03:15 1021 30.15 850 25.1 14.6 58.2 33 -1.5 29.3
03:20 1021 30.15 850 25.1 14.5 58.1 35 -0.7 30.8
03:25 1021 30.15 850 25.1 13.9 57 36 -0.7 30.7
03:30 1021 30.15 850 25.1 13.5 56.2 37 -1 30.3
03:35 1021 30.15 850 25.1 13.5 56.3 37 -0.9 30.3
03:40 1021 30.15 850 25.1 13.6 56.4 37 -0.7 30.7
03:45 1021 30.15 850 25.1 13.6 56.5 36 -0.9 30.3
03:50 1021 30.15 850 25.1 13.8 56.8 34 -1.9 28.6
03:55 1021 30.15 850 25.1 14.3 57.7 34 -1.2 29.9
04:00 1021 30.15 850 25.1 14.2 57.6 34 -1.4 29.5
04:05 1021 30.15 850 25.1 14.6 58.2 33 -1.4 29.5
04:10 1021 30.15 850 25.1 14.1 57.4 36 -0.6 30.9
04:15 1021 30.15 850 25.1 13.6 56.5 36 -1.1 30
04:20 1021 30.15 851 25.13 13.7 56.7 36 -1.1 29.9
04:25 1021 30.15 851 25.13 13.8 56.8 34 -1.5 29.2
04:30 1021 30.15 851 25.13 13.8 56.8 34 -1.6 29.1
04:35 1021 30.15 851 25.13 13.7 56.6 36 -1 30.3
04:40 1021 30.15 851 25.13 13.4 56.1 37 -0.9 30.3
04:45 1021 30.15 851 25.13 12.9 55.3 38 -0.9 30.4
04:50 1021 30.15 851 25.13 12.8 55 39 -0.8 30.5
04:55 1021 30.15 851 25.13 12.6 54.6 39 -1.1 30.1
05:00 1021 30.15 851 25.13 12.7 54.9 38 -1.1 30
05:05 1021 30.15 851 25.13 12.8 55.1 37 -1.3 29.6
05:10 1021 30.15 851 25.13 13.1 55.5 37 -1.4 29.5
05:15 1022 30.18 851 25.13 13.7 56.6 33 -2.1 28.3
05:20 1022 30.18 851 25.13 14 57.1 33 -1.8 28.7
05:25 1022 30.18 851 25.13 13.8 56.9 34 -1.7 28.9
05:30 1022 30.18 851 25.13 13.8 56.8 34 -1.8 28.7
05:35 1022 30.18 851 25.13 13.8 56.8 34 -1.8 28.7
05:40 1022 30.18 851 25.13 13.6 56.5 36 -1 30.2
05:45 1022 30.18 851 25.13 13.2 55.8 37 -1.2 29.9
05:50 1022 30.18 851 25.13 12.9 55.3 39 -0.6 30.8
05:55 1022 30.18 851 25.13 12.7 54.8 37 -1.4 29.4
06:00 1022 30.18 851 25.13 12.7 54.9 41 -0.1 31.7
06:05 1022 30.18 851 25.13 12.2 54 39 -1.1 30
06:10 1022 30.18 851 25.13 13 55.3 35 -2.1 28.2
06:15 1022 30.18 851 25.13 13.3 56 35 -1.7 28.9
06:20 1022 30.18 851 25.13 13.1 55.6 36 -1.4 29.5
06:25 1022 30.18 851 25.13 12.7 54.9 39 -0.7 30.8
06:30 1022 30.18 851 25.13 12.1 53.8 39 -1.4 29.4
06:35 1022 30.18 851 25.13 12.3 54.2 42 -0.3 31.5
06:40 1022 30.18 851 25.13 11 51.7 46 -0.1 31.9
06:45 1022 30.18 851 25.13 11.1 52.1 42 -1.1 29.9
06:50 1022 30.18 851 25.13 11.4 52.6 42 -1 30.2
06:55 1022 30.18 851 25.13 11.6 52.8 43 -0.5 31
07:00 1022 30.18 851 25.13 11.6 52.9 41 -1 30.2
07:05 1022 30.18 851 25.13 11.6 53 42 -0.8 30.6
07:10 1022 30.18 851 25.13 11.8 53.2 41 -1.1 30
07:15 1022 30.18 851 25.13 12 53.5 40 -1.2 29.9
07:20 1022 30.18 852 25.16 12.1 53.9 38 -1.6 29
07:25 1022 30.18 852 25.16 12.6 54.6 37 -1.7 28.9
07:30 1023 30.21 852 25.16 12.9 55.3 36 -1.6 29.1
07:35 1023 30.21 852 25.16 13.1 55.5 36 -1.6 29.2
07:40 1023 30.21 852 25.16 13.1 55.5 37 -1.2 29.8
07:45 1023 30.21 852 25.16 12.8 55.1 37 -1.4 29.4
07:50 1023 30.21 852 25.16 13.2 55.7 35 -1.9 28.6
07:55 1023 30.21 852 25.16 13.6 56.5 35 -1.6 29.1
08:00 1023 30.21 852 25.16 13.3 56 37 -1.1 30.1
08:05 1023 30.21 852 25.16 12.8 55 39 -0.9 30.4
08:10 1023 30.21 852 25.16 12.8 55 37 -1.4 29.5
08:15 1023 30.21 852 25.16 13 55.4 39 -0.4 31.2
08:20 1023 30.21 852 25.16 12.7 54.9 39 -0.8 30.5
08:25 1023 30.21 852 25.16 13 55.4 39 -0.7 30.8
08:30 1023 30.21 852 25.16 13.6 56.5 38 -0.2 31.6
08:35 1023 30.21 852 25.16 14.2 57.5 37 -0.2 31.6
08:40 1023 30.21 852 25.16 14.8 58.6 39 1.2 34.1
08:45 1023 30.21 853 25.19 15.3 59.5 36 0.4 32.8
08:50 1023 30.21 853 25.19 15.6 60 39 1.9 35.5
08:55 1024 30.24 853 25.19 15.8 60.4 36 1 33.8
09:00 1024 30.24 853 25.19 15.8 60.5 38 1.6 35
09:05 1024 30.24 853 25.19 16.6 61.8 37 2 35.6
09:10 1024 30.24 853 25.19 17 62.5 40 3.3 38
09:15 1024 30.24 853 25.19 17.2 63 41 4 39.3
09:20 1024 30.24 853 25.19 16.6 61.8 41 3.5 38.4
09:25 1024 30.24 853 25.19 17 62.6 40 3.4 38.2
09:30 1024 30.24 853 25.19 17 62.6 40 3.4 38.1
09:35 1024 30.24 853 25.19 17.3 63.2 35 1.9 35.5
09:40 1024 30.24 853 25.19 17.9 64.3 34 2.1 35.8
09:45 1024 30.24 853 25.19 18 64.3 32 1.2 34.1
09:50 1024 30.24 853 25.19 17.5 63.5 33 1.1 33.9
09:55 1024 30.24 853 25.19 17.3 63.1 34 1.5 34.8
10:00 1024 30.24 853 25.19 17.9 64.2 30 0.4 32.7
10:05 1024 30.24 853 25.19 18.4 65.2 29 0.2 32.4
10:10 1024 30.24 853 25.19 18.6 65.4 30 1 33.8
10:15 1024 30.24 853 25.19 19.1 66.3 28 0.4 32.7
10:20 1024 30.24 853 25.19 19.3 66.7 26 -0.6 30.9
10:25 1024 30.24 853 25.19 20 67.9 25 -0.7 30.8
10:30 1024 30.24 853 25.19 20 67.9 26 0.2 32.4
10:35 1024 30.24 853 25.19 20 68 25 -0.2 31.6
10:40 1024 30.24 853 25.19 19.8 67.6 25 -0.7 30.7
10:45 1024 30.24 853 25.19 19.8 67.6 25 -0.8 30.6
10:50 1024 30.24 853 25.19 20.2 68.3 24 -0.6 30.9
10:55 1024 30.24 853 25.19 20.9 69.6 23 -0.6 30.9
11:00 1024 30.24 853 25.19 20.8 69.4 25 0.3 32.6
11:05 1024 30.24 853 25.19 20.6 69 24 -0.3 31.5
11:10 1024 30.24 853 25.19 20.6 69.1 24 -0.4 31.3
11:15 1024 30.24 853 25.19 20.7 69.3 25 -0.1 31.9
11:20 1024 30.24 853 25.19 21.2 70.1 25 0.4 32.7
11:25 1024 30.24 853 25.19 20.9 69.7 25 0.3 32.5
11:30 1024 30.24 853 25.19 21.1 69.9 25 0.4 32.8
11:35 1024 30.24 853 25.19 21.2 70.1 24 0.2 32.4
11:40 1024 30.24 853 25.19 21.5 70.6 25 0.8 33.5
11:45 1024 30.24 853 25.19 21.7 71.1 25 0.9 33.5
11:50 1024 30.24 853 25.19 21.9 71.3 24 0.8 33.5
11:55 1024 30.24 853 25.19 21.9 71.4 24 0.8 33.4
12:00 1024 30.24 853 25.19 21.8 71.3 24 0.5 32.9
12:05 1024 30.24 853 25.19 22.3 72.1 23 0.4 32.7
12:10 1024 30.24 853 25.19 22.4 72.3 23 0.2 32.4
12:15 1024 30.24 853 25.19 22.4 72.4 21 -0.5 31.1
12:20 1024 30.24 853 25.19 22.2 71.9 23 0.2 32.4
12:25 1024 30.24 853 25.19 22.2 71.9 23 0.2 32.4
12:30 1023 30.21 853 25.19 22.3 72.1 22 -0.2 31.6
12:35 1023 30.21 853 25.19 22.3 72.2 23 0.5 32.8
12:40 1023 30.21 853 25.19 22.7 72.8 22 -0.2 31.6
12:45 1023 30.21 853 25.19 23.2 73.8 22 0.4 32.7
12:50 1023 30.21 853 25.19 23.6 74.4 22 0.6 33
12:55 1024 30.24 853 25.19 23.6 74.4 21 0.3 32.6
13:00 1024 30.24 853 25.19 24.1 75.4 22 1.1 33.9
13:05 1024 30.24 853 25.19 24.1 75.4 22 1 33.8
13:10 1024 30.24 853 25.19 24.1 75.4 23 1.8 35.2
13:15 1024 30.24 853 25.19 24.2 75.6 21 0.9 33.6
13:20 1024 30.24 853 25.19 24.1 75.4 22 1.2 34.2
13:25 1023 30.21 853 25.19 24.2 75.5 22 1.4 34.6
13:30 1024 30.24 853 25.19 24.1 75.3 22 1.1 34
13:35 1023 30.21 853 25.19 24.3 75.8 21 1 33.8
13:40 1023 30.21 853 25.19 24.6 76.3 22 1.6 35
13:45 1023 30.21 853 25.19 24.9 76.8 21 1.6 34.8
13:50 1023 30.21 853 25.19 24.9 76.8 21 1.1 34.1
13:55 1023 30.21 852 25.16 25.3 77.6 19 0.6 33.1
14:00 1023 30.21 852 25.16 25 77.1 21 1.4 34.4
14:05 1023 30.21 852 25.16 25.4 77.7 20 1.3 34.3
14:10 1023 30.21 852 25.16 25.3 77.6 20 1.1 33.9
14:15 1023 30.21 852 25.16 25.1 77.2 20 0.5 33
14:20 1023 30.21 852 25.16 25.4 77.7 19 0.7 33.2
14:25 1023 30.21 852 25.16 25.9 78.6 20 1.1 34
14:30 1023 30.21 852 25.16 25.7 78.3 19 0.4 32.6
14:35 1023 30.21 852 25.16 25.8 78.4 18 -0.2 31.6
14:40 1023 30.21 852 25.16 25.8 78.4 17 -0.5 31.1
14:45 1023 30.21 852 25.16 26 78.7 18 0 32
14:50 1023 30.21 852 25.16 25.6 78 19 0.3 32.5
14:55 1023 30.21 852 25.16 25.6 78 18 -0 31.9
15:00 1023 30.21 852 25.16 25.8 78.5 19 1 33.8
15:05 1023 30.21 852 25.16 25.4 77.8 19 0.4 32.6
15:10 1023 30.21 852 25.16 25.5 78 17 -0.7 30.7
15:15 1023 30.21 852 25.16 25.6 78 18 -0.4 31.3
15:20 1023 30.21 852 25.16 25.9 78.7 18 0.4 32.8
15:25 1023 30.21 852 25.16 26.2 79.2 18 0.2 32.4
15:30 1023 30.21 852 25.16 26.6 79.8 18 0.8 33.5
15:35 1023 30.21 852 25.16 26.7 80.1 18 0.9 33.5
15:40 1023 30.21 852 25.16 26.4 79.5 18 0.5 33
15:45 1022 30.18 852 25.16 26.5 79.7 17 0 32
15:50 1022 30.18 852 25.16 26.9 80.5 18 1.2 34.1
15:55 1022 30.18 852 25.16 26.8 80.3 19 1.3 34.4
16:00 1022 30.18 852 25.16 26.8 80.2 17 0.4 32.7
16:05 1022 30.18 852 25.16 26.6 79.8 17 -0.2 31.7
16:10 1022 30.18 852 25.16 26.7 80 18 0.3 32.6
16:15 1022 30.18 851 25.13 26.9 80.5 18 0.7 33.3
16:20 1022 30.18 851 25.13 27.3 81.1 17 0.2 32.4
16:25 1022 30.18 851 25.13 27.1 80.8 18 0.9 33.6
16:30 1022 30.18 851 25.13 27.1 80.8 18 0.7 33.3
16:35 1022 30.18 851 25.13 27 80.7 17 0.5 33
16:40 1022 30.18 851 25.13 26.9 80.4 18 0.6 33.1
16:45 1022 30.18 851 25.13 26.3 79.4 19 1.1 34
16:50 1022 30.18 851 25.13 26.4 79.5 18 0.6 33.1
16:55 1022 30.18 851 25.13 26.6 79.9 18 0.7 33.3
17:00 1022 30.18 851 25.13 26.6 79.8 18 0.7 33.3
17:05 1022 30.18 851 25.13 26.6 79.9 17 0.1 32.3
17:10 1022 30.18 851 25.13 26.8 80.2 18 0.4 32.7
17:15 1022 30.18 851 25.13 26.7 80.1 18 0.3 32.6
17:20 1022 30.18 851 25.13 26.8 80.3 18 0.7 33.3
17:25 1022 30.18 851 25.13 26.8 80.2 17 -0.5 31.2
17:30 1022 30.18 851 25.13 25.7 78.3 19 0.6 33
17:35 1022 30.18 851 25.13 25.8 78.4 18 -0.3 31.5
17:40 1022 30.18 851 25.13 26.1 79 18 0.3 32.5
17:45 1022 30.18 851 25.13 26.5 79.7 19 0.9 33.7
17:50 1022 30.18 851 25.13 26.3 79.4 19 1 33.8
17:55 1022 30.18 851 25.13 25.8 78.4 20 1.4 34.4
18:00 1022 30.18 851 25.13 26 78.8 19 0.9 33.5
18:05 1022 30.18 851 25.13 26 78.8 20 1.4 34.5
18:10 1022 30.18 851 25.13 25.7 78.3 20 1.5 34.8
18:15 1022 30.18 851 25.13 25.7 78.2 20 1.6 34.9
18:20 1022 30.18 851 25.13 25.5 77.8 20 1.2 34.1
18:25 1022 30.18 851 25.13 25.3 77.5 22 2.1 35.8
18:30 1022 30.18 851 25.13 25 77 23 2.7 36.9
18:35 1022 30.18 851 25.13 24.3 75.7 24 2.8 37.1
18:40 1022 30.18 851 25.13 23.8 74.8 25 3.1 37.5
18:45 1022 30.18 851 25.13 23.3 73.9 27 3.4 38.1
18:50 1022 30.18 851 25.13 23 73.3 26 2.8 37
18:55 1022 30.18 851 25.13 22.8 73 26 2.7 36.9
19:00 1022 30.18 851 25.13 22.6 72.8 27 3 37.4
19:05 1022 30.18 851 25.13 22.2 71.9 31 4.5 40
19:10 1022 30.18 851 25.13 21.8 71.3 32 4.5 40.1
19:15 1022 30.18 851 25.13 21.4 70.4 34 4.8 40.7
19:20 1022 30.18 851 25.13 20.9 69.6 34 4.6 40.2
19:25 1022 30.18 851 25.13 20.1 68.3 34 3.8 38.8
19:30 1022 30.18 851 25.13 19.6 67.2 35 3.8 38.8
19:35 1022 30.18 851 25.13 19.2 66.6 38 4.8 40.6
19:40 1022 30.18 851 25.13 18.9 65.9 36 3.8 38.8
19:45 1022 30.18 851 25.13 18.5 65.3 39 4.3 39.7
19:50 1022 30.18 851 25.13 18.4 65 36 3.1 37.6
19:55 1022 30.18 851 25.13 18.1 64.6 36 2.9 37.2
20:00 1022 30.18 851 25.13 18 64.4 38 3.6 38.5
20:05 1022 30.18 851 25.13 17.9 64.2 37 3 37.4
20:10 1022 30.18 851 25.13 17.6 63.7 38 3.3 37.9
20:15 1022 30.18 851 25.13 16.9 62.5 40 3.4 38.1
20:20 1022 30.18 851 25.13 16.4 61.6 41 3.1 37.6
20:25 1022 30.18 851 25.13 16.4 61.4 38 2 35.6
20:30 1022 30.18 851 25.13 16.9 62.3 35 1.3 34.4
20:35 1022 30.18 851 25.13 17.2 63 33 1.1 34.1
20:40 1022 30.18 851 25.13 17.2 63 34 1.3 34.4
20:45 1022 30.18 851 25.13 16.8 62.2 35 1.3 34.3
20:50 1022 30.18 851 25.13 16.9 62.5 34 1 33.8
20:55 1022 30.18 851 25.13 17 62.7 35 1.5 34.8
21:00 1022 30.18 851 25.13 16.6 61.8 36 1.5 34.7
21:05 1022 30.18 851 25.13 16.3 61.3 36 1.3 34.4
21:10 1022 30.18 851 25.13 16.3 61.4 35 1.1 33.9
21:15 1022 30.18 851 25.13 16.4 61.5 35 0.9 33.6
21:20 1022 30.18 851 25.13 16.4 61.6 34 0.8 33.5
21:25 1022 30.18 851 25.13 16.6 61.8 34 0.6 33.1
21:30 1022 30.18 851 25.13 16.7 62.1 34 0.8 33.4
21:35 1022 30.18 851 25.13 16.6 61.8 34 0.7 33.2
21:40 1022 30.18 851 25.13 16.5 61.6 35 1 33.7
21:45 1022 30.18 851 25.13 16.2 61.1 36 1.3 34.3
21:50 1022 30.18 851 25.13 16 60.7 36 1 33.8
21:55 1022 30.18 851 25.13 15.9 60.6 36 0.9 33.7
22:00 1022 30.18 851 25.13 16.1 60.9 35 0.7 33.3
22:05 1022 30.18 851 25.13 16.3 61.3 34 0.6 33.1
22:10 1022 30.18 851 25.13 16.4 61.6 35 0.9 33.6
22:15 1022 30.18 851 25.13 16.5 61.7 35 1 33.7
22:20 1022 30.18 851 25.13 16.3 61.4 35 0.9 33.6
22:25 1022 30.18 851 25.13 16.2 61.1 37 1.7 35.1
22:30 1022 30.18 851 25.13 15.9 60.6 36 1 33.8
22:35 1022 30.18 851 25.13 15.9 60.6 40 2.3 36.2
22:40 1022 30.18 851 25.13 15.5 59.9 37 1 33.9
22:45 1022 30.18 851 25.13 15.3 59.6 38 1.3 34.3
22:50 1022 30.18 851 25.13 15.2 59.3 39 1.3 34.3
22:55 1022 30.18 851 25.13 15.5 59.9 36 0.6 33.1
23:00 1022 30.18 851 25.13 15.6 60 36 0.8 33.5
23:05 1022 30.18 851 25.13 15.5 59.9 37 0.8 33.5
23:10 1022 30.18 851 25.13 15.8 60.4 35 0.4 32.7
23:15 1022 30.18 851 25.13 16.2 61.2 35 0.9 33.6
23:20 1022 30.18 851 25.13 15.6 60 39 1.9 35.4
23:25 1022 30.18 851 25.13 15.3 59.6 37 0.7 33.3
23:30 1022 30.18 851 25.13 15.2 59.3 38 1 33.8
23:35 1022 30.18 851 25.13 15.2 59.4 36 0.5 32.9
23:40 1022 30.18 851 25.13 15.4 59.7 36 0.7 33.2
23:45 1022 30.18 851 25.13 15.6 60 37 1 33.8
23:50 1022 30.18 851 25.13 15.4 59.8 37 1 33.7
23:55 1022 30.18 851 25.13 15.5 60 37 1.1 34
24:00 1022 30.18 851 25.13 15.5 59.9 37 0.9 33.6